createdAt,value
2018-07-01T00:01:43.605Z,0.97
2018-07-01T00:04:12.211Z,1.00
2018-07-01T00:06:40.811Z,1.20
2018-07-01T00:09:09.417Z,0.90
2018-07-01T00:11:38.046Z,1.33
2018-07-01T00:14:06.677Z,1.73
2018-07-01T00:16:35.259Z,1.13
2018-07-01T00:19:03.859Z,0.80
2018-07-01T00:21:32.433Z,0.87
2018-07-01T00:24:01.038Z,0.80
2018-07-01T00:26:29.610Z,1.10
2018-07-01T00:28:58.201Z,1.57
2018-07-01T00:31:26.785Z,0.77
2018-07-01T00:33:55.369Z,0.90
2018-07-01T00:36:23.954Z,1.23
2018-07-01T00:38:52.586Z,1.90
2018-07-01T00:41:21.197Z,1.23
2018-07-01T00:43:49.835Z,1.13
2018-07-01T00:46:18.429Z,0.77
2018-07-01T00:48:46.993Z,0.60
2018-07-01T00:51:15.932Z,0.97
2018-07-01T00:53:44.505Z,0.80
2018-07-01T00:56:12.746Z,1.00
2018-07-01T00:58:41.309Z,2.13
2018-07-01T01:01:09.953Z,1.80
2018-07-01T01:03:38.544Z,2.00
2018-07-01T01:06:07.136Z,0.93
2018-07-01T01:08:35.745Z,0.90
2018-07-01T01:11:04.408Z,0.87
2018-07-01T01:13:33.001Z,1.17
2018-07-01T01:16:01.646Z,0.97
2018-07-01T01:18:30.265Z,2.23
2018-07-01T01:20:58.854Z,0.50
2018-07-01T01:23:27.469Z,0.60
2018-07-01T01:25:56.050Z,0.50
2018-07-01T01:28:24.641Z,1.03
2018-07-01T01:30:53.249Z,0.70
2018-07-01T01:33:21.905Z,0.60
2018-07-01T01:35:50.615Z,0.50
2018-07-01T01:38:19.530Z,1.90
2018-07-01T01:40:53.155Z,0.50
2018-07-01T01:43:27.057Z,0.53
2018-07-01T01:46:31.361Z,1.10
2018-07-01T01:49:04.390Z,0.60
2018-07-01T01:51:38.030Z,0.90
2018-07-01T01:54:19.924Z,0.73
2018-07-01T01:56:51.405Z,0.67
2018-07-01T01:59:24.118Z,1.67
2018-07-01T02:01:58.025Z,0.63
2018-07-01T02:05:29.455Z,0.50
2018-07-01T02:08:07.125Z,0.60
2018-07-01T02:10:35.817Z,0.50
2018-07-01T02:13:04.478Z,0.60
2018-07-01T02:15:38.533Z,1.03
2018-07-01T02:18:06.840Z,0.57
2018-07-01T02:20:37.749Z,1.80
2018-07-01T02:23:10.675Z,0.33
2018-07-01T02:25:40.365Z,1.47
2018-07-01T02:28:09.062Z,0.57
2018-07-01T02:30:37.680Z,0.40
2018-07-01T02:33:06.315Z,0.97
2018-07-01T02:35:34.985Z,1.23
2018-07-01T02:38:03.565Z,0.40
2018-07-01T02:40:32.174Z,0.50
2018-07-01T02:43:00.768Z,0.50
2018-07-01T02:45:29.434Z,0.47
2018-07-01T02:47:58.012Z,0.97
2018-07-01T02:50:26.652Z,0.60
2018-07-01T02:52:55.370Z,0.53
2018-07-01T02:55:23.986Z,0.60
2018-07-01T02:57:52.650Z,1.50
2018-07-01T03:00:21.239Z,0.30
2018-07-01T03:02:49.837Z,0.87
2018-07-01T03:05:18.458Z,0.47
2018-07-01T03:07:47.060Z,0.60
2018-07-01T03:10:15.641Z,1.63
2018-07-01T03:12:44.258Z,0.40
2018-07-01T03:15:12.921Z,0.73
2018-07-01T03:17:41.486Z,0.47
2018-07-01T03:20:10.145Z,0.53
2018-07-01T03:22:38.714Z,0.53
2018-07-01T03:25:07.397Z,0.50
2018-07-01T03:27:35.965Z,0.77
2018-07-01T03:30:04.734Z,0.40
2018-07-01T03:32:33.379Z,0.50
2018-07-01T03:35:02.045Z,0.50
2018-07-01T03:37:30.669Z,0.60
2018-07-01T03:39:59.256Z,0.40
2018-07-01T03:42:27.870Z,0.60
2018-07-01T03:44:56.438Z,1.17
2018-07-01T03:47:25.103Z,0.50
2018-07-01T03:49:53.686Z,0.97
2018-07-01T03:52:22.297Z,0.63
2018-07-01T03:54:50.876Z,0.70
2018-07-01T03:57:19.581Z,1.23
2018-07-01T03:59:48.213Z,0.60
2018-07-01T04:02:16.845Z,3.27
2018-07-01T04:04:45.454Z,0.40
2018-07-01T04:07:14.021Z,0.60
2018-07-01T04:09:42.650Z,0.33
2018-07-01T04:12:11.262Z,0.67
2018-07-01T04:14:39.869Z,0.60
2018-07-01T04:17:08.425Z,1.40
2018-07-01T04:19:38.037Z,0.60
2018-07-01T04:22:08.257Z,0.60
2018-07-01T04:24:37.340Z,0.50
2018-07-01T04:27:06.020Z,0.47
2018-07-01T04:29:35.335Z,0.57
2018-07-01T04:32:04.105Z,1.00
2018-07-01T04:34:32.664Z,0.73
2018-07-01T04:37:01.384Z,1.40
2018-07-01T04:39:29.978Z,0.67
2018-07-01T04:41:58.617Z,0.47
2018-07-01T04:44:26.840Z,0.60
2018-07-01T04:46:55.438Z,0.50
2018-07-01T04:49:24.046Z,1.47
2018-07-01T04:51:54.504Z,0.53
2018-07-01T04:54:23.081Z,0.60
2018-07-01T04:56:51.657Z,2.00
2018-07-01T04:59:20.245Z,0.50
2018-07-01T05:01:48.861Z,2.27
2018-07-01T05:04:17.653Z,0.40
2018-07-01T05:06:46.285Z,0.60
2018-07-01T05:09:14.897Z,0.70
2018-07-01T05:11:43.829Z,0.50
2018-07-01T05:14:12.548Z,1.00
2018-07-01T05:16:41.205Z,1.07
2018-07-01T05:19:10.276Z,0.73
2018-07-01T05:21:38.886Z,0.67
2018-07-01T05:24:07.482Z,1.03
2018-07-01T05:26:36.085Z,0.90
2018-07-01T05:29:05.524Z,0.50
2018-07-01T05:31:33.770Z,1.53
2018-07-01T05:34:02.368Z,0.40
2018-07-01T05:36:31.034Z,0.47
2018-07-01T05:38:59.653Z,0.47
2018-07-01T05:41:28.253Z,0.57
2018-07-01T05:43:56.901Z,0.40
2018-07-01T05:46:25.156Z,0.60
2018-07-01T05:48:53.768Z,0.67
2018-07-01T05:51:22.353Z,1.23
2018-07-01T05:53:50.950Z,0.70
2018-07-01T05:56:19.558Z,0.70
2018-07-01T05:58:48.152Z,0.50
2018-07-01T06:01:16.765Z,0.50
2018-07-01T06:03:45.397Z,0.50
2018-07-01T06:06:14.017Z,1.27
2018-07-01T06:08:43.306Z,0.50
2018-07-01T06:11:11.931Z,0.57
2018-07-01T06:13:40.561Z,0.47
2018-07-01T06:16:09.171Z,0.40
2018-07-01T06:18:37.757Z,0.43
2018-07-01T06:21:06.422Z,0.40
2018-07-01T06:23:35.069Z,0.93
2018-07-01T06:26:03.802Z,0.60
2018-07-01T06:28:32.415Z,0.70
2018-07-01T06:31:01.049Z,0.70
2018-07-01T06:33:29.715Z,1.53
2018-07-01T06:35:58.779Z,0.53
2018-07-01T06:38:27.400Z,3.50
2018-07-01T06:40:56.052Z,0.43
2018-07-01T06:43:24.652Z,0.50
2018-07-01T06:45:53.255Z,0.50
2018-07-01T06:48:21.884Z,0.40
2018-07-01T06:50:50.526Z,0.60
2018-07-01T06:53:19.130Z,0.93
2018-07-01T06:55:47.689Z,0.87
2018-07-01T06:58:16.320Z,0.80
2018-07-01T07:00:44.592Z,1.43
2018-07-01T07:03:13.235Z,1.17
2018-07-01T07:05:41.852Z,1.33
2018-07-01T07:08:10.600Z,0.47
2018-07-01T07:10:39.235Z,1.10
2018-07-01T07:13:07.869Z,0.50
2018-07-01T07:15:36.476Z,0.40
2018-07-01T07:18:05.315Z,1.07
2018-07-01T07:20:33.926Z,0.50
2018-07-01T07:23:02.511Z,0.40
2018-07-01T07:25:31.164Z,1.30
2018-07-01T07:27:59.730Z,0.60
2018-07-01T07:30:28.383Z,1.80
2018-07-01T07:32:57.045Z,0.60
2018-07-01T07:35:25.672Z,0.37
2018-07-01T07:37:54.764Z,0.80
2018-07-01T07:40:23.333Z,0.60
2018-07-01T07:42:51.913Z,0.50
2018-07-01T07:45:20.543Z,0.40
2018-07-01T07:47:49.197Z,1.80
2018-07-01T07:50:17.768Z,0.90
2018-07-01T07:52:46.346Z,0.40
2018-07-01T07:55:14.949Z,0.40
2018-07-01T07:57:43.865Z,0.40
2018-07-01T08:00:12.514Z,0.47
2018-07-01T08:02:41.534Z,0.30
2018-07-01T08:05:10.485Z,0.80
2018-07-01T08:07:39.145Z,0.40
2018-07-01T08:10:07.757Z,0.40
2018-07-01T08:12:36.330Z,0.77
2018-07-01T08:15:05.209Z,0.30
2018-07-01T08:17:33.779Z,1.43
2018-07-01T08:20:02.385Z,0.53
2018-07-01T08:22:33.112Z,0.50
2018-07-01T08:25:01.797Z,0.40
2018-07-01T08:27:30.618Z,0.93
2018-07-01T08:29:59.274Z,0.33
2018-07-01T08:32:27.982Z,0.73
2018-07-01T08:34:56.644Z,0.57
2018-07-01T08:37:25.437Z,1.07
2018-07-01T08:39:54.158Z,0.50
2018-07-01T08:42:24.264Z,0.60
2018-07-01T08:44:53.640Z,1.70
2018-07-01T08:47:22.248Z,0.50
2018-07-01T08:49:50.564Z,0.33
2018-07-01T08:52:19.247Z,0.33
2018-07-01T08:54:47.854Z,0.40
2018-07-01T08:57:17.569Z,0.57
2018-07-01T08:59:46.905Z,0.70
2018-07-01T09:02:15.887Z,0.50
2018-07-01T09:04:44.509Z,1.43
2018-07-01T09:07:13.481Z,0.70
2018-07-01T09:09:42.165Z,2.17
2018-07-01T09:12:11.099Z,0.67
2018-07-01T09:14:39.870Z,0.40
2018-07-01T09:17:08.691Z,0.90
2018-07-01T09:19:37.322Z,0.30
2018-07-01T09:22:05.945Z,0.50
2018-07-01T09:24:34.769Z,0.40
2018-07-01T09:27:03.490Z,0.40
2018-07-01T09:29:32.201Z,0.50
2018-07-01T09:32:00.817Z,0.53
2018-07-01T09:34:29.741Z,0.40
2018-07-01T09:36:58.761Z,0.50
2018-07-01T09:39:27.325Z,0.40
2018-07-01T09:41:56.322Z,0.40
2018-07-01T09:44:24.888Z,0.40
2018-07-01T09:46:53.498Z,0.60
2018-07-01T09:49:22.142Z,0.63
2018-07-01T09:51:50.758Z,0.23
2018-07-01T09:54:20.009Z,1.70
2018-07-01T09:56:48.626Z,0.37
2018-07-01T09:59:17.222Z,0.50
2018-07-01T10:01:45.833Z,0.40
2018-07-01T10:04:14.497Z,0.70
2018-07-01T10:06:43.141Z,0.53
2018-07-01T10:09:11.818Z,0.30
2018-07-01T10:11:40.417Z,0.93
2018-07-01T10:14:09.749Z,0.40
2018-07-01T10:16:38.432Z,0.40
2018-07-01T10:19:07.134Z,0.10
2018-07-01T10:21:35.769Z,0.30
2018-07-01T10:24:04.397Z,0.40
2018-07-01T10:26:33.040Z,0.40
2018-07-01T10:29:20.050Z,0.40
2018-07-01T10:31:48.616Z,0.30
2018-07-01T10:34:17.526Z,0.57
2018-07-01T10:36:46.464Z,0.40
2018-07-01T10:39:16.862Z,0.47
2018-07-01T10:41:45.494Z,0.50
2018-07-01T10:44:14.078Z,0.80
2018-07-01T10:46:42.676Z,0.60
2018-07-01T10:49:11.357Z,0.47
2018-07-01T10:51:40.056Z,0.37
2018-07-01T10:54:08.593Z,0.55
2018-07-01T10:56:37.213Z,0.93
2018-07-01T10:59:05.901Z,0.33
2018-07-01T11:01:34.541Z,0.40
2018-07-01T11:04:03.133Z,0.30
2018-07-01T11:06:31.721Z,0.57
2018-07-01T11:09:00.437Z,1.07
2018-07-01T11:11:29.112Z,0.50
2018-07-01T11:13:57.694Z,1.05
2018-07-01T11:16:26.287Z,0.30
2018-07-01T11:18:54.988Z,0.65
2018-07-01T11:21:23.577Z,1.27
2018-07-01T11:23:52.533Z,0.30
2018-07-01T11:26:21.149Z,0.40
2018-07-01T11:28:49.749Z,0.45
2018-07-01T11:31:18.352Z,0.60
2018-07-01T11:33:46.988Z,0.30
2018-07-01T11:36:15.609Z,0.40
2018-07-01T11:38:44.206Z,0.40
2018-07-01T11:41:12.833Z,0.30
2018-07-01T11:43:41.542Z,0.40
2018-07-01T11:46:10.276Z,0.20
2018-07-01T11:48:38.504Z,0.40
2018-07-01T11:51:07.087Z,0.35
2018-07-01T11:53:35.649Z,0.40
2018-07-01T11:56:04.340Z,1.15
2018-07-01T11:58:32.910Z,0.30
2018-07-01T12:01:01.581Z,0.40
2018-07-01T12:03:30.148Z,0.35
2018-07-01T12:05:58.738Z,0.40
2018-07-01T12:08:27.325Z,0.50
2018-07-01T12:10:55.956Z,0.42
2018-07-01T12:13:24.534Z,0.33
2018-07-01T12:15:53.133Z,0.40
2018-07-01T12:18:21.917Z,0.20
2018-07-01T12:20:50.732Z,0.37
2018-07-01T12:23:19.494Z,0.40
2018-07-01T12:25:48.155Z,1.00
2018-07-01T12:28:16.804Z,0.37
2018-07-01T12:30:45.549Z,0.68
2018-07-01T12:33:14.188Z,0.40
2018-07-01T12:35:42.949Z,0.50
2018-07-01T12:38:11.933Z,0.40
2018-07-01T12:40:40.152Z,0.42
2018-07-01T12:43:08.725Z,0.23
2018-07-01T12:45:37.337Z,0.57
2018-07-01T12:48:06.310Z,0.88
2018-07-01T12:50:34.932Z,0.40
2018-07-01T12:53:03.577Z,0.30
2018-07-01T12:55:32.189Z,0.20
2018-07-01T12:58:00.751Z,0.30
2018-07-01T13:00:29.386Z,0.60
2018-07-01T13:02:57.972Z,0.30
2018-07-01T13:05:26.601Z,0.40
2018-07-01T13:07:55.173Z,0.40
2018-07-01T13:10:23.749Z,0.47
2018-07-01T13:12:52.377Z,0.28
2018-07-01T13:15:21.137Z,0.30
2018-07-01T13:17:49.745Z,0.35
2018-07-01T13:20:18.313Z,0.60
2018-07-01T13:22:46.987Z,0.25
2018-07-01T13:25:15.663Z,0.70
2018-07-01T13:27:44.172Z,0.65
2018-07-01T13:30:12.797Z,0.30
2018-07-01T13:32:41.357Z,0.30
2018-07-01T13:35:10.053Z,0.45
2018-07-01T13:37:38.645Z,0.65
2018-07-01T13:40:07.319Z,0.60
2018-07-01T13:42:35.881Z,0.40
2018-07-01T13:45:05.735Z,0.30
2018-07-01T13:47:34.337Z,0.35
2018-07-01T13:50:03.040Z,0.30
2018-07-01T13:52:31.618Z,0.50
2018-07-01T13:55:00.205Z,0.33
2018-07-01T13:57:28.813Z,0.50
2018-07-01T13:59:57.392Z,0.40
2018-07-01T14:02:25.995Z,0.40
2018-07-01T14:04:54.559Z,0.20
2018-07-01T14:07:23.169Z,0.40
2018-07-01T14:09:51.721Z,1.12
2018-07-01T14:12:20.281Z,0.60
2018-07-01T14:14:48.865Z,0.55
2018-07-01T14:17:17.447Z,0.57
2018-07-01T14:19:46.149Z,0.45
2018-07-01T14:22:14.713Z,0.57
2018-07-01T14:24:43.338Z,0.78
2018-07-01T14:27:11.994Z,2.15
2018-07-01T14:29:40.669Z,0.57
2018-07-01T14:32:09.229Z,0.50
2018-07-01T14:34:38.040Z,0.30
2018-07-01T14:37:06.786Z,0.23
2018-07-01T14:39:35.396Z,0.40
2018-07-01T14:42:04.009Z,0.30
2018-07-01T14:44:32.670Z,0.23
2018-07-01T14:47:01.371Z,0.42
2018-07-01T14:49:30.054Z,0.40
2018-07-01T14:51:58.669Z,0.60
2018-07-01T14:54:27.305Z,0.30
2018-07-01T14:56:55.905Z,0.30
2018-07-01T14:59:24.478Z,0.35
2018-07-01T15:01:53.167Z,0.33
2018-07-01T15:04:22.099Z,0.33
2018-07-01T15:06:50.696Z,0.65
2018-07-01T15:09:19.293Z,0.33
2018-07-01T15:11:47.854Z,0.30
2018-07-01T15:14:16.597Z,0.40
2018-07-01T15:16:45.186Z,0.45
2018-07-01T15:19:13.925Z,1.00
2018-07-01T15:21:42.497Z,0.40
2018-07-01T15:24:11.160Z,0.40
2018-07-01T15:26:39.721Z,0.75
2018-07-01T15:29:08.336Z,0.20
2018-07-01T15:31:37.174Z,0.40
2018-07-01T15:34:05.968Z,0.30
2018-07-01T15:36:34.641Z,0.10
2018-07-01T15:39:04.152Z,0.50
2018-07-01T15:41:32.818Z,0.33
2018-07-01T15:44:01.397Z,0.55
2018-07-01T15:46:30.010Z,0.35
2018-07-01T15:48:58.638Z,0.30
2018-07-01T15:51:27.261Z,0.17
2018-07-01T15:53:56.065Z,0.85
2018-07-01T15:56:24.641Z,0.40
2018-07-01T15:58:53.513Z,0.23
2018-07-01T16:01:22.080Z,0.45
2018-07-01T16:03:50.665Z,0.25
2018-07-01T16:06:19.240Z,0.40
2018-07-01T16:08:47.869Z,0.30
2018-07-01T16:11:16.518Z,0.23
2018-07-01T16:13:45.109Z,0.35
2018-07-01T16:16:13.682Z,0.28
2018-07-01T16:18:42.252Z,0.20
2018-07-01T16:21:10.797Z,0.37
2018-07-01T16:23:39.581Z,0.75
2018-07-01T16:26:13.693Z,0.30
2018-07-01T16:28:47.621Z,0.62
2018-07-01T16:31:16.316Z,0.33
2018-07-01T16:33:44.890Z,0.47
2018-07-01T16:36:13.438Z,0.20
2018-07-01T16:38:42.030Z,0.33
2018-07-01T16:41:10.648Z,0.30
2018-07-01T16:43:39.173Z,0.37
2018-07-01T16:46:07.793Z,0.30
2018-07-01T16:48:36.341Z,0.30
2018-07-01T16:51:04.944Z,0.30
2018-07-01T16:53:33.500Z,0.55
2018-07-01T16:56:02.080Z,0.50
2018-07-01T16:58:30.624Z,0.47
2018-07-01T17:00:59.217Z,1.50
2018-07-01T17:03:27.761Z,0.30
2018-07-01T17:05:56.397Z,0.75
2018-07-01T17:08:24.980Z,0.47
2018-07-01T17:10:53.533Z,0.68
2018-07-01T17:13:22.210Z,0.40
2018-07-01T17:15:50.750Z,1.53
2018-07-01T17:18:19.320Z,0.87
2018-07-01T17:20:47.865Z,0.73
2018-07-01T17:23:16.452Z,0.53
2018-07-01T17:25:48.069Z,0.73
2018-07-01T17:28:16.670Z,0.40
2018-07-01T17:30:45.633Z,0.60
2018-07-01T17:33:44.273Z,0.30
2018-07-01T17:36:12.833Z,0.43
2018-07-01T17:38:41.428Z,0.77
2018-07-01T17:41:10.014Z,0.60
2018-07-01T17:43:38.671Z,0.37
2018-07-01T17:46:07.265Z,0.40
2018-07-01T17:48:35.812Z,0.47
2018-07-01T17:51:04.441Z,0.57
2018-07-01T17:53:38.197Z,0.80
2018-07-01T17:56:06.885Z,1.10
2018-07-01T17:58:35.437Z,0.43
2018-07-01T18:01:04.033Z,0.30
2018-07-01T18:03:32.763Z,0.40
2018-07-01T18:06:01.393Z,0.50
2018-07-01T18:08:30.000Z,0.30
2018-07-01T18:10:58.622Z,0.93
2018-07-01T18:13:27.164Z,0.37
2018-07-01T18:15:55.742Z,0.40
2018-07-01T18:18:24.437Z,0.67
2018-07-01T18:20:52.997Z,0.50
2018-07-01T18:23:53.699Z,0.40
2018-07-01T18:25:50.409Z,0.60
2018-07-01T18:28:30.181Z,0.60
2018-07-01T18:30:47.621Z,0.70
2018-07-01T18:33:17.869Z,0.50
2018-07-01T18:35:46.449Z,1.00
2018-07-01T18:38:15.157Z,0.80
2018-07-01T18:40:43.720Z,0.63
2018-07-01T18:43:14.194Z,1.90
2018-07-01T18:45:42.780Z,0.43
2018-07-01T18:48:11.409Z,0.70
2018-07-01T18:50:39.982Z,1.80
2018-07-01T18:53:08.548Z,0.50
2018-07-01T18:55:37.125Z,0.80
2018-07-01T18:58:05.805Z,0.40
2018-07-01T19:00:34.397Z,0.60
2018-07-01T19:03:02.965Z,0.60
2018-07-01T19:05:31.536Z,0.50
2018-07-01T19:08:00.093Z,1.40
2018-07-01T19:10:28.669Z,0.97
2018-07-01T19:12:57.205Z,0.53
2018-07-01T19:15:25.774Z,0.53
2018-07-01T19:17:54.385Z,0.70
2018-07-01T19:20:22.979Z,0.53
2018-07-01T19:22:51.566Z,0.50
2018-07-01T19:25:20.171Z,0.60
2018-07-01T19:27:48.744Z,0.70
2018-07-01T19:30:17.340Z,0.50
2018-07-01T19:32:46.353Z,2.43
2018-07-01T19:35:15.009Z,0.70
2018-07-01T19:37:43.616Z,0.60
2018-07-01T19:40:12.271Z,0.70
2018-07-01T19:42:40.982Z,0.70
2018-07-01T19:45:09.481Z,1.27
2018-07-01T19:47:38.051Z,0.70
2018-07-01T19:50:06.734Z,1.07
2018-07-01T19:52:35.311Z,0.53
2018-07-01T19:55:04.118Z,0.80
2018-07-01T19:57:32.686Z,0.87
2018-07-01T20:00:01.004Z,0.43
2018-07-01T20:02:29.581Z,0.50
2018-07-01T20:04:58.182Z,1.93
2018-07-01T20:07:26.760Z,0.57
2018-07-01T20:09:55.381Z,1.47
2018-07-01T20:12:23.979Z,0.70
2018-07-01T20:14:52.748Z,0.60
2018-07-01T20:17:21.358Z,0.60
2018-07-01T20:19:50.037Z,0.63
2018-07-01T20:22:18.662Z,1.30
2018-07-01T20:24:47.232Z,0.97
2018-07-01T20:27:15.853Z,0.40
2018-07-01T20:29:44.408Z,0.40
2018-07-01T20:32:13.050Z,0.40
2018-07-01T20:34:41.645Z,0.57
2018-07-01T20:37:10.237Z,0.83
2018-07-01T20:39:38.793Z,1.07
2018-07-01T20:42:07.394Z,0.60
2018-07-01T20:44:35.956Z,0.40
2018-07-01T20:47:04.596Z,0.60
2018-07-01T20:49:33.228Z,0.40
2018-07-01T20:52:01.820Z,1.10
2018-07-01T20:54:30.483Z,0.53
2018-07-01T20:56:59.072Z,0.60
2018-07-01T20:59:27.645Z,1.23
2018-07-01T21:01:56.248Z,0.47
2018-07-01T21:04:24.828Z,0.30
2018-07-01T21:06:53.498Z,0.60
2018-07-01T21:09:22.074Z,0.60
2018-07-01T21:11:50.912Z,0.30
2018-07-01T21:14:19.701Z,0.60
2018-07-01T21:16:48.310Z,0.50
2018-07-01T21:19:16.860Z,0.40
2018-07-01T21:21:45.120Z,0.57
2018-07-01T21:24:13.689Z,0.33
2018-07-01T21:26:42.301Z,0.30
2018-07-01T21:29:11.091Z,0.53
2018-07-01T21:31:39.656Z,0.60
2018-07-01T21:34:08.285Z,0.60
2018-07-01T21:36:36.983Z,0.30
2018-07-01T21:39:08.452Z,0.40
2018-07-01T21:41:37.640Z,0.50
2018-07-01T21:44:06.661Z,0.40
2018-07-01T21:46:35.240Z,0.37
2018-07-01T21:49:03.868Z,0.40
2018-07-01T21:51:32.464Z,0.73
2018-07-01T21:54:01.039Z,0.50
2018-07-01T21:56:29.642Z,0.60
2018-07-01T21:58:58.273Z,1.00
2018-07-01T22:01:26.945Z,2.03
2018-07-01T22:03:55.537Z,2.13
2018-07-01T22:06:24.311Z,2.37
2018-07-01T22:08:52.917Z,1.97
2018-07-01T22:11:44.888Z,2.10
2018-07-01T22:14:22.461Z,1.97
2018-07-01T22:16:51.089Z,1.80
2018-07-01T22:19:20.163Z,1.93
2018-07-01T22:21:49.720Z,2.20
2018-07-01T22:24:18.464Z,2.50
2018-07-01T22:26:47.161Z,1.83
2018-07-01T22:29:16.716Z,2.13
2018-07-01T22:31:45.349Z,2.00
2018-07-01T22:34:15.193Z,2.03
2018-07-01T22:36:44.573Z,1.87
2018-07-01T22:39:22.373Z,2.87
2018-07-01T22:41:51.681Z,3.40
2018-07-01T22:44:20.297Z,2.53
2018-07-01T22:46:49.489Z,2.43
2018-07-01T22:49:18.091Z,3.13
2018-07-01T22:51:46.688Z,3.03
2018-07-01T22:54:15.286Z,3.07
2018-07-01T22:56:43.937Z,2.93
2018-07-01T22:59:12.159Z,3.13
2018-07-01T23:02:51.016Z,3.27
2018-07-01T23:05:20.106Z,2.90
2018-07-01T23:07:48.736Z,3.37
2018-07-01T23:10:17.928Z,3.73
2018-07-01T23:12:46.517Z,3.20
2018-07-01T23:15:15.137Z,3.40
2018-07-01T23:17:43.919Z,3.50
2018-07-01T23:20:12.589Z,3.97
2018-07-01T23:22:41.622Z,3.50
2018-07-01T23:25:10.740Z,3.10
2018-07-01T23:27:39.441Z,3.10
2018-07-01T23:30:08.097Z,3.40
2018-07-01T23:32:36.699Z,3.40
2018-07-01T23:35:05.430Z,3.20
2018-07-01T23:37:34.112Z,2.97
2018-07-01T23:40:02.820Z,3.70
2018-07-01T23:42:31.421Z,3.47
2018-07-01T23:45:00.013Z,3.90
2018-07-01T23:47:28.618Z,3.03
2018-07-01T23:49:57.210Z,2.80
2018-07-01T23:52:25.837Z,3.23
2018-07-01T23:54:54.436Z,4.17
2018-07-01T23:57:23.017Z,2.60
2018-07-01T23:59:51.608Z,2.77
